x

Nantucket Sound (44020) Wave Buoy

4:50 - Tue 17th Jan 2017 All times are EST. -5 hours from GMT.

  • Sig Wave height 0.3ft
  • Average Period 3s
  • Wind
    11mph
  • Sea Temp 40°f
  • Air Temp 42°f
  • Sea Pressure 1021.5mb
  • Nantucket Sound
  • Nantucket Sound

More Historic Weather Station data

Upgrade to MSW Pro to gain access to the past 30 days of data for over 8000 Wavebouys and Weather Stations around the globe.

Join Pro

Comparision Forecast

View Surf forecast
   
mar. 01/17 4:50 0.3ft  -  3s 11
mph
1021.5mb 40f 42f
3:50 0.7ft  -  3s 2
mph
1021.6mb 39f 39f
2:50 0.7ft  -  4s 2
mph
1021.6mb 39f 39f
1:50 0.7ft  -  4s 2
mph
1021.7mb 39f 38f
12:50 0.3ft  -  4s 2
mph
1022.3mb 39f 38f
11:50 0.3ft  -  3s 2 4 mph 1023.1mb 39f 38f
10:50 0.7ft  -  3s 4 7 mph 1023.6mb 40f 38f
9:50 0.7ft  -  4s 9 11 mph 1024.5mb 40f 39f
7:50 0.7ft  -  3s 9 11 mph 1023.6mb 40f 40f
6:50 0.7ft  -  3s 9 11 mph 1022.8mb 40f 40f
5:50 0.7ft  -  3s 11 13 mph 1023mb 40f 40f
4:50 1ft 3s 3s 7 9 mph 1022.7mb 39f 40f
3:50 1ft 3s 3s 11
mph
1022.7mb 39f 40f
2:50 1.3ft 3s 3s 13
mph
1022.9mb 39f 40f
1:50 1.6ft 3s 3s 16 20 mph 1022.8mb 39f 40f
12:50 1.6ft 3s 3s 18 20 mph 1023mb 39f 40f
lun. 01/16 11:50 1.6ft 3s 3s 18 20 mph 1023.6mb 39f 39f
10:50 1.6ft 3s 3s 20 25 mph 1024.1mb 39f 40f
9:50 1.6ft 3s 3s 20 25 mph 1024.6mb 40f 40f
8:50 1.6ft 3s 3s 20 22 mph 1025mb 41f 40f
7:50 2ft 3s 3s 20 25 mph 1025.4mb 42f 40f
6:50 2ft 4s 3s 20 25 mph 1025.8mb 42f 40f
5:50 2ft 4s 4s 20 25 mph 1025.9mb 41f 39f
4:50 1.6ft 4s 4s 20 22 mph 1026.2mb 40f 39f
3:50 1.6ft 4s 4s 18 22 mph 1026.8mb 39f 39f
2:50 1.6ft 4s 3s 18 22 mph 1026.9mb 39f 39f
1:50 1.3ft 3s 3s 18 20 mph 1027.3mb 39f 39f
12:50 1ft 5s 3s 16 18 mph 1027.8mb 39f 39f
11:50 0.3ft  -  4s 13 16 mph 1029mb 39f 37f
10:50 0.3ft  -  4s 11 13 mph 1030.4mb 39f 37f
9:50 0.7ft  -  4s 9
mph
1030.9mb 39f 36f
8:50 0.3ft  -  5s 4 7 mph 1030.8mb 40f 36f
7:50 0.7ft  -  4s 2 4 mph 1030.8mb 41f 36f
6:50 0.3ft  -  4s  -  2 mph 1030.4mb 41f 35f
5:50 0.3ft  -  4s  -  2 mph 1030.5mb 41f 35f
4:50 0.7ft  -  4s 4
mph
1030.4mb 40f 35f
3:50 0.7ft  -  3s 7 9 mph 1030.2mb 39f 35f
2:50 1ft 3s 3s 7 9 mph 1030.2mb 39f 35f
1:50 1ft 4s 4s 7 9 mph 1029.9mb 39f 35f
12:50 0.7ft  -  3s 9 11 mph 1029mb 39f 35f
dim. 01/15 11:50 0.7ft  -  3s 9 11 mph 1029.1mb 39f 35f
10:50 0.3ft  -  3s 9 11 mph 1029.1mb 39f 36f
9:50 0.7ft  -  3s 9 11 mph 1029.3mb 40f 36f
8:50 0.7ft  -  3s 9 11 mph 1028.3mb 40f 36f
7:50 1ft 3s 3s 9 13 mph 1028.1mb 40f 36f
6:50 1.3ft 3s 3s 13 16 mph 1027.6mb 40f 36f
5:50 1.6ft 3s 3s 13 18 mph 1026.9mb 40f 36f
4:50 2ft 4s 3s 16 20 mph 1026.2mb 40f 36f
3:50 2ft 4s 3s 20 22 mph 1025.4mb 39f 35f
2:50 2ft 4s 3s 18 20 mph 1025.1mb 39f 35f
1:50 2.5ft 4s 3s 18 25 mph 1024.6mb 39f 35f
12:50 2.5ft 4s 3s 20 27 mph 1024.2mb 39f 34f
11:50 2ft 3s 3s 22 27 mph 1024.2mb 39f 34f
10:50 2ft 3s 3s 20 25 mph 1024.6mb 39f 34f
9:50 2ft 3s 3s 18 22 mph 1025mb 39f 33f
8:50 2ft 3s 3s 18 22 mph 1024.5mb 39f 33f
7:50 2ft 3s 3s 18 20 mph 1023.9mb 40f 33f
6:50 1.6ft 4s 3s 18 20 mph 1023.3mb 40f 33f
5:50 1.6ft 4s 3s 16 20 mph 1022.5mb 40f 34f
4:50 1.6ft 4s 4s 16 18 mph 1022.4mb 40f 35f
3:50 1.3ft 4s 3s 18 22 mph 1022.6mb 39f 36f
2:50 1.3ft 3s 3s 16 18 mph 1023.4mb 40f 35f
1:50 1ft 3s 3s 16 18 mph 1023.9mb 39f 35f
12:50 1ft 10s 3s 13 16 mph 1024.4mb 39f 35f
sam. 01/14 11:50 1ft 17s 3s 13 16 mph 1025.3mb 39f 35f
10:50 1ft 2s 3s 16 18 mph 1026.3mb 39f 36f
9:50 1ft 3s 3s 13 16 mph 1027.5mb 40f 34f
8:50 0.7ft  -  3s 18 20 mph 1028.5mb 39f 34f
7:50 0.7ft  -  4s 16 18 mph 1029.3mb 39f 32f
6:50 0.7ft  -  5s 9 11 mph 1030.3mb 40f 31f
5:50 0.7ft  -  5s 7 9 mph 1031.3mb 41f 30f
4:50 0.7ft  -  5s 7 9 mph 1032.2mb 41f 29f
3:50 0.7ft  -  4s 4 7 mph 1033.2mb 40f 28f
2:50 0.7ft  -  3s 2 4 mph 1033.8mb 39f 28f
1:50 1ft 4s 4s  -  4 mph 1034.6mb 40f 28f
12:50 1.3ft 3s 4s 2 7 mph 1035.3mb 38f 27f
11:50 1.3ft 3s 3s 9 11 mph 1036.3mb 38f 27f
10:50 1.3ft 3s 3s 11 16 mph 1037.9mb 39f 27f
9:50 1.6ft 3s 3s 13 18 mph 1038.6mb 39f 27f
8:50 2ft 3s 3s 13 18 mph 1038.9mb 40f 27f
7:50 2ft 3s 3s 18 22 mph 1038.6mb 39f 27f
6:50 2.5ft 4s 3s 18 22 mph 1038.6mb 39f 27f
5:50 2.5ft 4s 4s 18 22 mph 1038.4mb 39f 28f
4:50 2.5ft 4s 4s 20 25 mph 1038.7mb 39f 28f
3:50 3ft 4s 4s 22 27 mph 1038.3mb 39f 29f
2:50 3.5ft 4s 4s 22 27 mph 1038.2mb 40f 29f
1:50 3.5ft 4s 4s 27 31 mph 1037.3mb 40f 31f
12:50 3.5ft 4s 4s 25 27 mph 1036.7mb 39f 32f
ven. 01/13 11:50 3ft 3s 3s 25 29 mph 1036.1mb 38f 34f